Aviation Digital Data Service (ADDS)

Output produced by METARs form (1340 UTC 26 May 2018)
found at http://www.aviationweather.gov/adds/metars/
 
TAF SVBC 261000Z 2612/2712 00000KT 9999 FEW010 TX34/19Z TN25/08Z 
     FM261600 06010KT 9999 SCT010 SCT070 
     BECMG 2620/2623 05010KT 9000 DZ FEW010 SCT070
       
TAF SVMI 261000Z 2612/2712 00000KT 9999 SCT016 TX33/18Z TN25/08Z 
     FM261400 02003KT 9999 FEW016 SCT100 
     BECMG 2618/2622 05012KT SCT016
       
TAF SVMC 261000Z 2612/2712 00000KT 9999 SCT013 TX34/19Z TN26/08Z 
     FM261520 09008KT 9999 SCT013 SCT070 
     TEMPO 2620/2623 9000 DZ BKN013
       
TAF SVMG 261000Z 2612/2712 08006KT 9999 FEW010 TX34/19Z TN25/08Z 
     FM261450 09012KT 9999 SCT010 
     BECMG 2620/2700 09015G18KT FEW010 SCT080
       
TAF SVJC 261000Z 2612/2712 07006KT 9999 SCT013 TX34/19Z TN25/08Z 
     FM261620 08015KT 9999 SCT013 SCT090 
     BECMG 2620/2623 09015G18 BKN013
       
TAF SVSA 260400Z 2606/2706 00000KT 9999 BKN020 TX33/19Z TN22/08Z 
     TEMPO 2606/2610 -DZ 
     FM261100 00000KT 9999 SCT020 BKN090